sensor_id;sensor_type;location;lat;lon;timestamp;pressure;altitude;pressure_sealevel;temperature;humidity
26978;BME280;56314;48.088;11.642;2023-07-24T00:01:59;94887.06;;;19.93;65.52
26978;BME280;56314;48.088;11.642;2023-07-24T00:04:25;94881.94;;;19.92;65.76
26978;BME280;56314;48.088;11.642;2023-07-24T00:06:50;94875.22;;;19.96;65.91
26978;BME280;56314;48.088;11.642;2023-07-24T00:09:15;94875.59;;;19.93;65.75
26978;BME280;56314;48.088;11.642;2023-07-24T00:11:41;94867.84;;;19.98;65.66
26978;BME280;56314;48.088;11.642;2023-07-24T00:14:06;94866.16;;;19.90;65.70
26978;BME280;56314;48.088;11.642;2023-07-24T00:16:31;94873.84;;;19.85;66.07
26978;BME280;56314;48.088;11.642;2023-07-24T00:18:57;94862.69;;;19.75;66.30
26978;BME280;56314;48.088;11.642;2023-07-24T00:21:22;94861.22;;;19.72;66.35
26978;BME280;56314;48.088;11.642;2023-07-24T00:23:48;94848.34;;;19.76;66.35
26978;BME280;56314;48.088;11.642;2023-07-24T00:26:13;94844.78;;;19.68;66.41
26978;BME280;56314;48.088;11.642;2023-07-24T00:28:38;94844.97;;;19.67;66.66
26978;BME280;56314;48.088;11.642;2023-07-24T00:31:04;94842.88;;;19.62;67.22
26978;BME280;56314;48.088;11.642;2023-07-24T00:33:29;94838.28;;;19.56;66.82
26978;BME280;56314;48.088;11.642;2023-07-24T00:35:57;94835.81;;;19.54;67.08
26978;BME280;56314;48.088;11.642;2023-07-24T00:38:23;94831.06;;;19.50;66.98
26978;BME280;56314;48.088;11.642;2023-07-24T00:40:48;94836.59;;;19.48;67.06
26978;BME280;56314;48.088;11.642;2023-07-24T00:43:15;94824.28;;;19.47;67.08
26978;BME280;56314;48.088;11.642;2023-07-24T00:45:40;94822.34;;;19.41;67.30
26978;BME280;56314;48.088;11.642;2023-07-24T00:48:05;94815.38;;;19.40;66.97
26978;BME280;56314;48.088;11.642;2023-07-24T00:50:31;94811.50;;;19.43;67.30
26978;BME280;56314;48.088;11.642;2023-07-24T00:52:57;94815.75;;;19.37;67.26
26978;BME280;56314;48.088;11.642;2023-07-24T00:55:22;94808.16;;;19.34;67.59
26978;BME280;56314;48.088;11.642;2023-07-24T00:57:48;94808.53;;;19.31;67.55
26978;BME280;56314;48.088;11.642;2023-07-24T01:00:14;94813.84;;;19.31;67.11
26978;BME280;56314;48.088;11.642;2023-07-24T01:02:40;94813.41;;;19.27;67.55
26978;BME280;56314;48.088;11.642;2023-07-24T01:05:07;94810.19;;;19.32;67.37
26978;BME280;56314;48.088;11.642;2023-07-24T01:07:33;94801.56;;;19.30;67.23
26978;BME280;56314;48.088;11.642;2023-07-24T01:09:59;94800.19;;;19.34;67.10
26978;BME280;56314;48.088;11.642;2023-07-24T01:12:29;94803.91;;;19.40;66.96
26978;BME280;56314;48.088;11.642;2023-07-24T01:15:16;94798.41;;;19.41;66.75
26978;BME280;56314;48.088;11.642;2023-07-24T01:17:48;94794.22;;;19.32;66.88
26978;BME280;56314;48.088;11.642;2023-07-24T01:20:17;94798.19;;;19.43;66.69
26978;BME280;56314;48.088;11.642;2023-07-24T01:23:22;94792.84;;;19.36;68.13
26978;BME280;56314;48.088;11.642;2023-07-24T01:26:00;94797.69;;;19.32;69.05
26978;BME280;56314;48.088;11.642;2023-07-24T01:28:28;94791.47;;;19.25;68.64
26978;BME280;56314;48.088;11.642;2023-07-24T01:30:53;94788.38;;;19.21;69.52
26978;BME280;56314;48.088;11.642;2023-07-24T01:33:19;94777.56;;;19.08;69.81
26978;BME280;56314;48.088;11.642;2023-07-24T01:35:48;94779.78;;;19.04;70.10
26978;BME280;56314;48.088;11.642;2023-07-24T01:38:15;94777.94;;;19.05;69.83
26978;BME280;56314;48.088;11.642;2023-07-24T01:40:42;94768.56;;;19.09;70.04
26978;BME280;56314;48.088;11.642;2023-07-24T01:43:08;94774.53;;;19.11;69.64
26978;BME280;56314;48.088;11.642;2023-07-24T01:45:33;94762.06;;;18.97;70.04
26978;BME280;56314;48.088;11.642;2023-07-24T01:47:59;94758.47;;;18.89;69.08
26978;BME280;56314;48.088;11.642;2023-07-24T01:50:25;94761.13;;;18.89;70.14
26978;BME280;56314;48.088;11.642;2023-07-24T01:52:50;94769.28;;;18.88;69.87
26978;BME280;56314;48.088;11.642;2023-07-24T01:55:16;94759.94;;;18.92;70.36
26978;BME280;56314;48.088;11.642;2023-07-24T01:57:41;94770.75;;;18.90;70.63
26978;BME280;56314;48.088;11.642;2023-07-24T02:00:07;94762.78;;;18.90;70.65
26978;BME280;56314;48.088;11.642;2023-07-24T02:02:32;94770.88;;;18.82;70.40
26978;BME280;56314;48.088;11.642;2023-07-24T02:04:58;94770.06;;;18.82;69.88
26978;BME280;56314;48.088;11.642;2023-07-24T02:07:23;94763.34;;;18.86;69.17
26978;BME280;56314;48.088;11.642;2023-07-24T02:09:48;94761.31;;;18.88;70.34
26978;BME280;56314;48.088;11.642;2023-07-24T02:12:14;94756.19;;;18.86;70.86
26978;BME280;56314;48.088;11.642;2023-07-24T02:14:39;94761.50;;;18.86;70.17
26978;BME280;56314;48.088;11.642;2023-07-24T02:17:04;94772.31;;;18.85;69.65
26978;BME280;56314;48.088;11.642;2023-07-24T02:19:30;94781.31;;;18.84;70.34
26978;BME280;56314;48.088;11.642;2023-07-24T02:21:55;94777.94;;;18.75;70.96
26978;BME280;56314;48.088;11.642;2023-07-24T02:24:20;94785.16;;;18.81;70.85
26978;BME280;56314;48.088;11.642;2023-07-24T02:26:46;94785.81;;;18.83;71.59
26978;BME280;56314;48.088;11.642;2023-07-24T02:29:11;94789.84;;;18.79;71.06
26978;BME280;56314;48.088;11.642;2023-07-24T02:31:36;94802.31;;;18.79;70.58
26978;BME280;56314;48.088;11.642;2023-07-24T02:34:02;94784.81;;;18.69;71.32
26978;BME280;56314;48.088;11.642;2023-07-24T02:36:27;94790.16;;;18.69;71.54
26978;BME280;56314;48.088;11.642;2023-07-24T02:38:52;94779.31;;;18.71;71.78
26978;BME280;56314;48.088;11.642;2023-07-24T02:41:18;94794.16;;;18.65;71.34
26978;BME280;56314;48.088;11.642;2023-07-24T02:43:43;94829.94;;;18.63;71.43
26978;BME280;56314;48.088;11.642;2023-07-24T02:46:09;94885.88;;;18.69;71.17
26978;BME280;56314;48.088;11.642;2023-07-24T02:48:34;94847.44;;;18.72;71.01
26978;BME280;56314;48.088;11.642;2023-07-24T02:50:59;94810.22;;;18.72;71.46
26978;BME280;56314;48.088;11.642;2023-07-24T02:53:25;94834.25;;;18.79;71.73
26978;BME280;56314;48.088;11.642;2023-07-24T02:55:50;94806.44;;;18.81;71.19
26978;BME280;56314;48.088;11.642;2023-07-24T02:58:15;94831.69;;;18.85;70.79
26978;BME280;56314;48.088;11.642;2023-07-24T03:00:41;94833.34;;;18.86;70.99
26978;BME280;56314;48.088;11.642;2023-07-24T03:03:06;94830.47;;;18.88;70.84
26978;BME280;56314;48.088;11.642;2023-07-24T03:05:34;94843.91;;;18.95;71.52
26978;BME280;56314;48.088;11.642;2023-07-24T03:07:59;94884.47;;;18.97;70.96
26978;BME280;56314;48.088;11.642;2023-07-24T03:10:25;94954.09;;;19.00;70.40
26978;BME280;56314;48.088;11.642;2023-07-24T03:12:50;95034.81;;;19.07;69.75
26978;BME280;56314;48.088;11.642;2023-07-24T03:15:16;95048.13;;;19.07;70.54
26978;BME280;56314;48.088;11.642;2023-07-24T03:17:41;95031.53;;;19.05;78.67
26978;BME280;56314;48.088;11.642;2023-07-24T03:20:14;95012.25;;;18.80;83.14
26978;BME280;56314;48.088;11.642;2023-07-24T03:22:43;94975.22;;;18.55;87.63
26978;BME280;56314;48.088;11.642;2023-07-24T03:25:09;94983.69;;;18.36;90.32
26978;BME280;56314;48.088;11.642;2023-07-24T03:27:34;94971.50;;;18.18;91.56
26978;BME280;56314;48.088;11.642;2023-07-24T03:30:00;94965.91;;;18.13;94.26
26978;BME280;56314;48.088;11.642;2023-07-24T03:32:25;94945.66;;;18.12;94.11
26978;BME280;56314;48.088;11.642;2023-07-24T03:34:51;94923.09;;;18.08;95.86
26978;BME280;56314;48.088;11.642;2023-07-24T03:37:16;94903.94;;;18.12;97.19
26978;BME280;56314;48.088;11.642;2023-07-24T03:39:42;94899.94;;;18.17;98.74
26978;BME280;56314;48.088;11.642;2023-07-24T03:42:10;94882.88;;;18.11;99.38
26978;BME280;56314;48.088;11.642;2023-07-24T03:44:38;94861.84;;;18.01;99.38
26978;BME280;56314;48.088;11.642;2023-07-24T03:47:04;94804.00;;;17.88;98.52
26978;BME280;56314;48.088;11.642;2023-07-24T03:49:29;94754.91;;;17.84;97.89
26978;BME280;56314;48.088;11.642;2023-07-24T03:51:54;94750.78;;;17.81;98.55
26978;BME280;56314;48.088;11.642;2023-07-24T03:54:19;94797.84;;;17.88;98.51
26978;BME280;56314;48.088;11.642;2023-07-24T03:56:45;94781.28;;;17.85;97.01
26978;BME280;56314;48.088;11.642;2023-07-24T03:59:10;94801.22;;;17.81;97.63
26978;BME280;56314;48.088;11.642;2023-07-24T04:01:36;94814.63;;;17.88;100.00
26978;BME280;56314;48.088;11.642;2023-07-24T04:04:01;94814.50;;;17.81;97.54
26978;BME280;56314;48.088;11.642;2023-07-24T04:06:27;94825.41;;;17.87;98.38
26978;BME280;56314;48.088;11.642;2023-07-24T04:08:52;94814.91;;;17.93;100.00
26978;BME280;56314;48.088;11.642;2023-07-24T04:11:17;94806.78;;;17.95;97.95
26978;BME280;56314;48.088;11.642;2023-07-24T04:13:43;94813.69;;;18.04;97.93
26978;BME280;56314;48.088;11.642;2023-07-24T04:16:08;94805.00;;;18.10;99.36
26978;BME280;56314;48.088;11.642;2023-07-24T04:18:33;94802.88;;;18.06;97.32
26978;BME280;56314;48.088;11.642;2023-07-24T04:20:58;94793.78;;;18.00;95.55
26978;BME280;56314;48.088;11.642;2023-07-24T04:23:24;94813.25;;;17.92;94.43
26978;BME280;56314;48.088;11.642;2023-07-24T04:25:49;94833.34;;;17.95;93.74
26978;BME280;56314;48.088;11.642;2023-07-24T04:28:15;94841.31;;;17.95;94.53
26978;BME280;56314;48.088;11.642;2023-07-24T04:30:40;94833.22;;;17.88;95.44
26978;BME280;56314;48.088;11.642;2023-07-24T04:33:06;94830.44;;;17.81;96.21
26978;BME280;56314;48.088;11.642;2023-07-24T04:35:31;94840.84;;;17.91;97.14
26978;BME280;56314;48.088;11.642;2023-07-24T04:37:57;94852.16;;;17.85;96.52
26978;BME280;56314;48.088;11.642;2023-07-24T04:40:23;94849.16;;;17.88;95.72
26978;BME280;56314;48.088;11.642;2023-07-24T04:42:48;94844.97;;;17.94;95.69
26978;BME280;56314;48.088;11.642;2023-07-24T04:45:14;94838.19;;;17.91;95.86
26978;BME280;56314;48.088;11.642;2023-07-24T04:47:39;94841.66;;;17.92;95.35
26978;BME280;56314;48.088;11.642;2023-07-24T04:50:05;94842.13;;;17.95;95.27
26978;BME280;56314;48.088;11.642;2023-07-24T04:52:30;94839.16;;;17.98;95.92
26978;BME280;56314;48.088;11.642;2023-07-24T04:54:56;94824.25;;;18.12;95.46
26978;BME280;56314;48.088;11.642;2023-07-24T04:57:21;94822.06;;;18.16;93.62
26978;BME280;56314;48.088;11.642;2023-07-24T04:59:47;94821.03;;;18.17;93.38
26978;BME280;56314;48.088;11.642;2023-07-24T05:02:12;94825.34;;;18.18;94.03
26978;BME280;56314;48.088;11.642;2023-07-24T05:04:37;94834.75;;;18.29;92.89
26978;BME280;56314;48.088;11.642;2023-07-24T05:07:03;94844.59;;;18.73;89.36
26978;BME280;56314;48.088;11.642;2023-07-24T05:09:28;94828.84;;;19.53;84.28
26978;BME280;56314;48.088;11.642;2023-07-24T05:11:54;94821.78;;;20.04;79.85
26978;BME280;56314;48.088;11.642;2023-07-24T05:14:19;94835.34;;;20.31;79.06
26978;BME280;56314;48.088;11.642;2023-07-24T05:16:44;94834.59;;;20.15;77.82
26978;BME280;56314;48.088;11.642;2023-07-24T05:19:10;94828.72;;;19.98;78.76
26978;BME280;56314;48.088;11.642;2023-07-24T05:21:35;94836.63;;;19.70;79.54
26978;BME280;56314;48.088;11.642;2023-07-24T05:24:00;94820.63;;;19.33;80.13
26978;BME280;56314;48.088;11.642;2023-07-24T05:26:26;94808.00;;;19.20;82.15
26978;BME280;56314;48.088;11.642;2023-07-24T05:28:51;94807.91;;;19.14;83.11
26978;BME280;56314;48.088;11.642;2023-07-24T05:31:18;94808.94;;;19.13;82.98
26978;BME280;56314;48.088;11.642;2023-07-24T05:33:43;94805.59;;;19.62;80.73
26978;BME280;56314;48.088;11.642;2023-07-24T05:36:08;94805.66;;;20.12;76.80
26978;BME280;56314;48.088;11.642;2023-07-24T05:38:34;94794.63;;;20.44;75.18
26978;BME280;56314;48.088;11.642;2023-07-24T05:41:01;94785.16;;;21.67;70.35
26978;BME280;56314;48.088;11.642;2023-07-24T05:43:27;94783.94;;;22.77;65.05
26978;BME280;56314;48.088;11.642;2023-07-24T05:45:54;94777.22;;;23.59;60.71
26978;BME280;56314;48.088;11.642;2023-07-24T05:48:21;94775.72;;;24.34;57.53
26978;BME280;56314;48.088;11.642;2023-07-24T05:50:47;94775.06;;;24.82;55.61
26978;BME280;56314;48.088;11.642;2023-07-24T05:53:13;94769.50;;;25.33;54.21
26978;BME280;56314;48.088;11.642;2023-07-24T05:55:39;94764.53;;;25.36;53.74
26978;BME280;56314;48.088;11.642;2023-07-24T05:58:04;94756.25;;;25.69;51.78
26978;BME280;56314;48.088;11.642;2023-07-24T06:00:30;94739.19;;;25.75;51.72
26978;BME280;56314;48.088;11.642;2023-07-24T06:02:55;94744.22;;;25.71;51.49
26978;BME280;56314;48.088;11.642;2023-07-24T06:05:20;94743.06;;;26.21;50.31
26978;BME280;56314;48.088;11.642;2023-07-24T06:07:46;94735.66;;;26.76;49.23
26978;BME280;56314;48.088;11.642;2023-07-24T06:10:12;94723.69;;;27.08;47.15
26978;BME280;56314;48.088;11.642;2023-07-24T06:12:38;94716.06;;;27.45;46.41
26978;BME280;56314;48.088;11.642;2023-07-24T06:15:04;94711.25;;;27.47;45.26
26978;BME280;56314;48.088;11.642;2023-07-24T06:17:30;94693.88;;;27.55;45.83
26978;BME280;56314;48.088;11.642;2023-07-24T06:19:55;94691.91;;;26.69;47.48
26978;BME280;56314;48.088;11.642;2023-07-24T06:22:21;94702.88;;;25.42;50.71
26978;BME280;56314;48.088;11.642;2023-07-24T06:24:46;94709.91;;;24.50;53.87
26978;BME280;56314;48.088;11.642;2023-07-24T06:27:11;94698.84;;;24.83;53.57
26978;BME280;56314;48.088;11.642;2023-07-24T06:29:37;94706.44;;;24.86;52.94
26978;BME280;56314;48.088;11.642;2023-07-24T06:32:02;94699.72;;;25.45;51.25
26978;BME280;56314;48.088;11.642;2023-07-24T06:34:28;94693.53;;;26.58;47.41
26978;BME280;56314;48.088;11.642;2023-07-24T06:36:53;94678.38;;;27.96;44.25
26978;BME280;56314;48.088;11.642;2023-07-24T06:39:18;94673.69;;;28.82;40.97
26978;BME280;56314;48.088;11.642;2023-07-24T06:41:44;94656.78;;;30.34;38.74
26978;BME280;56314;48.088;11.642;2023-07-24T06:44:09;94661.34;;;30.77;36.95
26978;BME280;56314;48.088;11.642;2023-07-24T06:46:35;94658.06;;;31.33;35.47
26978;BME280;56314;48.088;11.642;2023-07-24T06:49:00;94669.47;;;31.45;34.70
26978;BME280;56314;48.088;11.642;2023-07-24T06:51:25;94681.06;;;31.20;35.43
26978;BME280;56314;48.088;11.642;2023-07-24T06:53:51;94682.03;;;31.72;34.18
26978;BME280;56314;48.088;11.642;2023-07-24T06:56:16;94680.69;;;32.01;34.14
26978;BME280;56314;48.088;11.642;2023-07-24T06:58:41;94673.91;;;32.29;32.75
26978;BME280;56314;48.088;11.642;2023-07-24T07:01:07;94674.16;;;31.91;32.86
26978;BME280;56314;48.088;11.642;2023-07-24T07:03:32;94681.47;;;30.91;34.07
26978;BME280;56314;48.088;11.642;2023-07-24T07:06:00;94688.88;;;30.20;35.67
26978;BME280;56314;48.088;11.642;2023-07-24T07:08:26;94694.47;;;30.89;34.40
26978;BME280;56314;48.088;11.642;2023-07-24T07:10:56;94694.97;;;31.50;33.71
26978;BME280;56314;48.088;11.642;2023-07-24T07:13:21;94697.81;;;32.32;31.88
26978;BME280;56314;48.088;11.642;2023-07-24T07:15:47;94698.97;;;33.12;30.62
26978;BME280;56314;48.088;11.642;2023-07-24T07:18:12;94708.13;;;33.32;30.54
26978;BME280;56314;48.088;11.642;2023-07-24T07:20:37;94707.78;;;32.73;30.29
26978;BME280;56314;48.088;11.642;2023-07-24T07:23:02;94734.72;;;31.97;32.60
26978;BME280;56314;48.088;11.642;2023-07-24T07:25:28;94757.94;;;30.55;34.88
26978;BME280;56314;48.088;11.642;2023-07-24T07:27:53;94777.53;;;29.31;37.89
26978;BME280;56314;48.088;11.642;2023-07-24T07:30:18;94773.44;;;28.33;39.17
26978;BME280;56314;48.088;11.642;2023-07-24T07:32:44;94793.09;;;27.70;39.65
26978;BME280;56314;48.088;11.642;2023-07-24T07:35:09;94807.63;;;27.28;40.24
26978;BME280;56314;48.088;11.642;2023-07-24T07:37:34;94838.03;;;27.00;41.71
26978;BME280;56314;48.088;11.642;2023-07-24T07:40:00;94882.47;;;26.55;42.67
26978;BME280;56314;48.088;11.642;2023-07-24T07:42:25;94895.63;;;26.02;44.27
26978;BME280;56314;48.088;11.642;2023-07-24T07:44:50;94902.84;;;25.53;46.35
26978;BME280;56314;48.088;11.642;2023-07-24T07:47:16;94886.69;;;25.15;49.04
26978;BME280;56314;48.088;11.642;2023-07-24T07:49:41;94905.38;;;24.85;50.93
26978;BME280;56314;48.088;11.642;2023-07-24T07:52:07;94925.13;;;24.65;51.32
26978;BME280;56314;48.088;11.642;2023-07-24T07:54:32;94909.97;;;24.46;52.33
26978;BME280;56314;48.088;11.642;2023-07-24T07:56:57;94908.47;;;24.56;51.75
26978;BME280;56314;48.088;11.642;2023-07-24T07:59:23;94903.28;;;24.55;52.02
26978;BME280;56314;48.088;11.642;2023-07-24T08:01:48;94916.66;;;24.36;52.32
26978;BME280;56314;48.088;11.642;2023-07-24T08:04:13;94917.75;;;24.22;53.28
26978;BME280;56314;48.088;11.642;2023-07-24T08:06:39;94923.69;;;23.98;54.68
26978;BME280;56314;48.088;11.642;2023-07-24T08:09:04;94914.81;;;23.85;55.69
26978;BME280;56314;48.088;11.642;2023-07-24T08:11:29;94907.03;;;23.76;56.96
26978;BME280;56314;48.088;11.642;2023-07-24T08:13:54;94901.88;;;23.81;57.14
26978;BME280;56314;48.088;11.642;2023-07-24T08:16:20;94905.63;;;23.67;58.14
26978;BME280;56314;48.088;11.642;2023-07-24T08:18:47;94908.84;;;23.82;57.79
26978;BME280;56314;48.088;11.642;2023-07-24T08:21:13;94892.09;;;23.94;57.32
26978;BME280;56314;48.088;11.642;2023-07-24T08:23:39;94884.31;;;23.86;55.27
26978;BME280;56314;48.088;11.642;2023-07-24T08:26:04;94876.66;;;23.96;56.17
26978;BME280;56314;48.088;11.642;2023-07-24T08:28:30;94856.91;;;24.22;57.22
26978;BME280;56314;48.088;11.642;2023-07-24T08:30:56;94849.56;;;24.11;56.57
26978;BME280;56314;48.088;11.642;2023-07-24T08:33:22;94846.84;;;23.72;57.23
26978;BME280;56314;48.088;11.642;2023-07-24T08:35:58;94851.91;;;23.48;57.95
26978;BME280;56314;48.088;11.642;2023-07-24T08:38:23;94858.34;;;23.34;59.57
26978;BME280;56314;48.088;11.642;2023-07-24T08:41:02;94851.56;;;23.25;60.27
26978;BME280;56314;48.088;11.642;2023-07-24T08:43:29;94842.94;;;23.23;60.85
26978;BME280;56314;48.088;11.642;2023-07-24T08:45:57;94828.72;;;23.15;61.64
26978;BME280;56314;48.088;11.642;2023-07-24T08:48:23;94815.72;;;23.26;60.89
26978;BME280;56314;48.088;11.642;2023-07-24T08:50:50;94819.84;;;23.21;60.43
26978;BME280;56314;48.088;11.642;2023-07-24T08:53:18;94811.63;;;23.10;60.58
26978;BME280;56314;48.088;11.642;2023-07-24T08:55:45;94802.56;;;23.17;60.51
26978;BME280;56314;48.088;11.642;2023-07-24T08:58:13;94803.84;;;23.01;60.96
26978;BME280;56314;48.088;11.642;2023-07-24T09:00:39;94780.16;;;22.98;61.19
26978;BME280;56314;48.088;11.642;2023-07-24T09:03:05;94777.44;;;23.12;58.45
26978;BME280;56314;48.088;11.642;2023-07-24T09:05:30;94790.44;;;23.08;57.88
26978;BME280;56314;48.088;11.642;2023-07-24T09:07:55;94783.66;;;22.99;57.94
26978;BME280;56314;48.088;11.642;2023-07-24T09:10:25;94782.84;;;22.91;58.49
26978;BME280;56314;48.088;11.642;2023-07-24T09:12:51;94792.38;;;22.74;58.37
26978;BME280;56314;48.088;11.642;2023-07-24T09:15:16;94797.72;;;22.67;58.20
26978;BME280;56314;48.088;11.642;2023-07-24T09:17:52;94795.69;;;22.56;59.50
26978;BME280;56314;48.088;11.642;2023-07-24T09:20:20;94791.41;;;22.48;60.47
26978;BME280;56314;48.088;11.642;2023-07-24T09:22:50;94792.41;;;22.40;60.50
26978;BME280;56314;48.088;11.642;2023-07-24T09:25:15;94780.69;;;22.48;60.70
26978;BME280;56314;48.088;11.642;2023-07-24T09:27:41;94776.56;;;22.59;58.76
26978;BME280;56314;48.088;11.642;2023-07-24T09:30:15;94772.22;;;22.58;58.65
26978;BME280;56314;48.088;11.642;2023-07-24T09:32:42;94764.13;;;22.91;56.98
26978;BME280;56314;48.088;11.642;2023-07-24T09:35:17;94753.06;;;23.33;55.99
26978;BME280;56314;48.088;11.642;2023-07-24T09:37:43;94750.59;;;24.28;54.38
26978;BME280;56314;48.088;11.642;2023-07-24T09:40:10;94740.66;;;24.91;50.29
26978;BME280;56314;48.088;11.642;2023-07-24T09:42:36;94734.00;;;25.12;48.10
26978;BME280;56314;48.088;11.642;2023-07-24T09:45:03;94726.75;;;25.31;48.41
26978;BME280;56314;48.088;11.642;2023-07-24T09:47:30;94713.22;;;25.69;47.69
26978;BME280;56314;48.088;11.642;2023-07-24T09:49:56;94697.06;;;26.47;46.10
26978;BME280;56314;48.088;11.642;2023-07-24T09:52:23;94688.97;;;27.52;42.03
26978;BME280;56314;48.088;11.642;2023-07-24T09:55:01;94670.69;;;27.71;41.81
26978;BME280;56314;48.088;11.642;2023-07-24T09:57:30;94668.50;;;28.36;40.59
26978;BME280;56314;48.088;11.642;2023-07-24T09:59:58;94655.66;;;28.88;39.62
26978;BME280;56314;48.088;11.642;2023-07-24T10:02:24;94659.75;;;28.91;38.73
26978;BME280;56314;48.088;11.642;2023-07-24T10:04:50;94665.03;;;29.02;38.14
26978;BME280;56314;48.088;11.642;2023-07-24T10:07:15;94676.28;;;29.16;38.57
26978;BME280;56314;48.088;11.642;2023-07-24T10:09:43;94656.56;;;29.71;36.97
26978;BME280;56314;48.088;11.642;2023-07-24T10:12:09;94656.44;;;29.93;34.84
26978;BME280;56314;48.088;11.642;2023-07-24T10:14:36;94653.59;;;29.77;35.31
26978;BME280;56314;48.088;11.642;2023-07-24T10:17:02;94654.41;;;30.05;35.58
26978;BME280;56314;48.088;11.642;2023-07-24T10:19:39;94655.66;;;30.30;35.71
26978;BME280;56314;48.088;11.642;2023-07-24T10:22:05;94647.47;;;30.68;35.78
26978;BME280;56314;48.088;11.642;2023-07-24T10:24:30;94639.38;;;30.73;35.49
26978;BME280;56314;48.088;11.642;2023-07-24T10:26:56;94641.59;;;30.81;36.26
26978;BME280;56314;48.088;11.642;2023-07-24T10:29:25;94640.97;;;30.64;35.96
26978;BME280;56314;48.088;11.642;2023-07-24T10:31:54;94644.75;;;30.20;36.82
26978;BME280;56314;48.088;11.642;2023-07-24T10:34:20;94646.22;;;29.95;36.29
26978;BME280;56314;48.088;11.642;2023-07-24T10:36:45;94646.59;;;29.76;36.44
26978;BME280;56314;48.088;11.642;2023-07-24T10:39:16;94660.84;;;29.67;36.65
26978;BME280;56314;48.088;11.642;2023-07-24T10:41:44;94652.22;;;29.70;35.66
26978;BME280;56314;48.088;11.642;2023-07-24T10:44:10;94658.81;;;29.52;37.27
26978;BME280;56314;48.088;11.642;2023-07-24T10:46:40;94665.09;;;29.08;37.59
26978;BME280;56314;48.088;11.642;2023-07-24T10:49:07;94660.38;;;28.76;38.36
26978;BME280;56314;48.088;11.642;2023-07-24T10:51:33;94650.16;;;28.61;40.44
26978;BME280;56314;48.088;11.642;2023-07-24T10:53:59;94649.03;;;28.74;39.42
26978;BME280;56314;48.088;11.642;2023-07-24T10:56:25;94645.16;;;28.69;39.31
26978;BME280;56314;48.088;11.642;2023-07-24T10:58:51;94636.84;;;28.54;39.31
26978;BME280;56314;48.088;11.642;2023-07-24T11:01:17;94621.84;;;28.63;38.47
26978;BME280;56314;48.088;11.642;2023-07-24T11:03:43;94600.31;;;29.18;36.70
26978;BME280;56314;48.088;11.642;2023-07-24T11:06:15;94595.25;;;29.87;36.44
26978;BME280;56314;48.088;11.642;2023-07-24T11:08:41;94597.94;;;30.73;34.16
26978;BME280;56314;48.088;11.642;2023-07-24T11:11:07;94595.63;;;31.17;33.34
26978;BME280;56314;48.088;11.642;2023-07-24T11:13:33;94595.97;;;31.88;35.22
26978;BME280;56314;48.088;11.642;2023-07-24T11:16:04;94587.81;;;32.14;31.70
26978;BME280;56314;48.088;11.642;2023-07-24T11:18:30;94587.22;;;32.22;31.42
26978;BME280;56314;48.088;11.642;2023-07-24T11:20:56;94581.84;;;32.17;32.13
26978;BME280;56314;48.088;11.642;2023-07-24T11:23:22;94578.28;;;32.17;32.13
26978;BME280;56314;48.088;11.642;2023-07-24T11:25:52;94570.69;;;32.29;31.77
26978;BME280;56314;48.088;11.642;2023-07-24T11:28:18;94559.31;;;32.06;31.57
26978;BME280;56314;48.088;11.642;2023-07-24T11:30:43;94541.69;;;31.62;33.45
26978;BME280;56314;48.088;11.642;2023-07-24T11:33:10;94557.16;;;31.21;32.86
26978;BME280;56314;48.088;11.642;2023-07-24T11:35:36;94555.81;;;31.28;34.14
26978;BME280;56314;48.088;11.642;2023-07-24T11:38:04;94549.84;;;31.42;33.30
26978;BME280;56314;48.088;11.642;2023-07-24T11:40:38;94537.06;;;31.16;32.64
26978;BME280;56314;48.088;11.642;2023-07-24T11:43:04;94531.88;;;30.99;33.72
26978;BME280;56314;48.088;11.642;2023-07-24T11:45:30;94535.38;;;30.95;33.85
26978;BME280;56314;48.088;11.642;2023-07-24T11:47:56;94548.97;;;31.05;33.97
26978;BME280;56314;48.088;11.642;2023-07-24T11:50:22;94550.88;;;31.05;34.08
26978;BME280;56314;48.088;11.642;2023-07-24T11:52:50;94537.03;;;30.96;33.19
26978;BME280;56314;48.088;11.642;2023-07-24T11:55:18;94528.56;;;30.77;34.07
26978;BME280;56314;48.088;11.642;2023-07-24T11:57:54;94517.69;;;30.61;34.23
26978;BME280;56314;48.088;11.642;2023-07-24T12:00:21;94534.66;;;30.36;35.76
26978;BME280;56314;48.088;11.642;2023-07-24T12:02:46;94540.09;;;29.93;36.64
26978;BME280;56314;48.088;11.642;2023-07-24T12:05:12;94552.03;;;29.59;37.83
26978;BME280;56314;48.088;11.642;2023-07-24T12:07:37;94558.75;;;29.24;38.40
26978;BME280;56314;48.088;11.642;2023-07-24T12:10:04;94548.66;;;28.87;38.93
26978;BME280;56314;48.088;11.642;2023-07-24T12:12:59;94537.91;;;28.70;39.88
26978;BME280;56314;48.088;11.642;2023-07-24T12:15:25;94536.53;;;29.17;39.47
26978;BME280;56314;48.088;11.642;2023-07-24T12:17:51;94531.50;;;29.58;39.09
26978;BME280;56314;48.088;11.642;2023-07-24T12:20:17;94537.97;;;29.57;40.50
26978;BME280;56314;48.088;11.642;2023-07-24T12:22:42;94579.59;;;29.29;41.31
26978;BME280;56314;48.088;11.642;2023-07-24T12:25:08;94617.84;;;28.88;41.24
26978;BME280;56314;48.088;11.642;2023-07-24T12:27:33;94645.75;;;28.32;40.67
26978;BME280;56314;48.088;11.642;2023-07-24T12:29:59;94666.34;;;27.87;40.35
26978;BME280;56314;48.088;11.642;2023-07-24T12:32:25;94676.09;;;27.42;41.52
26978;BME280;56314;48.088;11.642;2023-07-24T12:34:53;94674.41;;;26.95;44.50
26978;BME280;56314;48.088;11.642;2023-07-24T12:37:19;94671.78;;;26.36;55.07
26978;BME280;56314;48.088;11.642;2023-07-24T12:39:46;94687.94;;;25.27;60.29
26978;BME280;56314;48.088;11.642;2023-07-24T12:42:11;94678.34;;;24.70;66.46
26978;BME280;56314;48.088;11.642;2023-07-24T12:44:37;94699.06;;;24.19;66.34
26978;BME280;56314;48.088;11.642;2023-07-24T12:47:04;94705.34;;;23.81;67.11